createdAt,value
2022-08-05T00:00:55.821Z,23.70
2022-08-05T00:01:56.822Z,23.64
2022-08-05T00:02:56.807Z,23.58
2022-08-05T00:03:57.089Z,23.45
2022-08-05T00:04:56.144Z,23.52
2022-08-05T00:06:06.384Z,23.47
2022-08-05T00:06:56.721Z,23.47
2022-08-05T00:08:00.319Z,23.53
2022-08-05T00:08:56.702Z,23.47
2022-08-05T00:09:55.681Z,23.58
2022-08-05T00:10:55.695Z,23.47
2022-08-05T00:11:59.815Z,23.32
2022-08-05T00:12:56.990Z,23.47
2022-08-05T00:13:55.645Z,23.38
2022-08-05T00:14:55.638Z,23.27
2022-08-05T00:16:00.167Z,23.26
2022-08-05T00:16:55.631Z,23.23
2022-08-05T00:17:55.627Z,23.17
2022-08-05T00:18:55.603Z,23.12
2022-08-05T00:20:02.503Z,23.11
2022-08-05T00:20:55.574Z,23.12
2022-08-05T00:21:55.588Z,23.20
2022-08-05T00:22:58.505Z,23.08
2022-08-05T00:24:09.991Z,22.97
2022-08-05T00:24:56.538Z,23.02
2022-08-05T00:25:55.523Z,23.05
2022-08-05T00:26:55.560Z,23.07
2022-08-05T00:27:55.502Z,23.05
2022-08-05T00:28:55.514Z,23.07
2022-08-05T00:29:56.379Z,23.01
2022-08-05T00:30:55.487Z,22.99
2022-08-05T00:32:12.883Z,22.94
2022-08-05T00:32:56.452Z,23.01
2022-08-05T00:34:56.408Z,22.90
2022-08-05T00:35:06.399Z,22.94
2022-08-05T00:36:15.067Z,22.92
2022-08-05T00:37:10.274Z,22.96
2022-08-05T00:37:56.411Z,22.86
2022-08-05T00:38:55.409Z,22.82
2022-08-05T00:39:58.850Z,22.83
2022-08-05T00:40:55.389Z,22.87
2022-08-05T00:41:55.909Z,22.78
2022-08-05T00:42:55.377Z,22.72
2022-08-05T00:43:55.336Z,22.74
2022-08-05T00:44:55.647Z,22.77
2022-08-05T00:45:55.321Z,22.74
2022-08-05T00:47:02.121Z,22.68
2022-08-05T00:48:05.151Z,22.71
2022-08-05T00:48:55.289Z,22.75
2022-08-05T00:49:55.281Z,22.69
2022-08-05T00:50:55.269Z,22.77
2022-08-05T00:51:55.272Z,22.65
2022-08-05T00:52:55.518Z,22.69
2022-08-05T00:54:02.171Z,22.64
2022-08-05T00:54:56.328Z,22.57
2022-08-05T00:55:55.209Z,22.60
2022-08-05T00:56:55.227Z,22.71
2022-08-05T00:57:58.674Z,22.59
2022-08-05T00:58:55.186Z,22.59
2022-08-05T00:59:55.183Z,22.53
2022-08-05T01:00:55.195Z,22.64
2022-08-05T01:01:55.253Z,22.53
2022-08-05T01:02:55.150Z,22.54
2022-08-05T01:03:55.139Z,22.47
2022-08-05T01:04:55.165Z,22.37
2022-08-05T01:05:55.196Z,22.31
2022-08-05T01:06:55.175Z,22.19
2022-08-05T01:08:40.575Z,22.12
2022-08-05T01:08:57.096Z,22.07
2022-08-05T01:09:55.303Z,21.99
2022-08-05T01:10:55.097Z,21.94
2022-08-05T01:11:55.108Z,21.85
2022-08-05T01:13:05.252Z,21.72
2022-08-05T01:13:57.616Z,21.71
2022-08-05T01:14:55.108Z,21.64
2022-08-05T01:15:55.119Z,21.63
2022-08-05T01:16:55.173Z,21.64
2022-08-05T01:17:55.113Z,21.60
2022-08-05T01:18:56.584Z,21.56
2022-08-05T01:20:01.339Z,21.66
2022-08-05T01:20:54.974Z,21.61
2022-08-05T01:21:55.037Z,21.54
2022-08-05T01:22:57.297Z,21.60
2022-08-05T01:23:55.016Z,21.59
2022-08-05T01:24:54.967Z,21.50
2022-08-05T01:25:55.035Z,21.53
2022-08-05T01:26:55.073Z,21.44
2022-08-05T01:27:54.905Z,21.48
2022-08-05T01:28:54.899Z,21.42
2022-08-05T01:29:54.888Z,21.51
2022-08-05T01:30:55.326Z,21.56
2022-08-05T01:31:54.881Z,21.61
2022-08-05T01:32:54.859Z,21.57
2022-08-05T01:33:55.389Z,21.56
2022-08-05T01:34:54.835Z,21.50
2022-08-05T01:35:54.835Z,21.51
2022-08-05T01:36:54.825Z,21.63
2022-08-05T01:37:54.804Z,21.60
2022-08-05T01:38:54.828Z,21.50
2022-08-05T01:39:54.984Z,21.69
2022-08-05T01:40:54.767Z,21.51
2022-08-05T01:41:54.780Z,21.57
2022-08-05T01:42:54.766Z,21.56
2022-08-05T01:43:54.745Z,21.59
2022-08-05T01:44:54.821Z,21.60
2022-08-05T01:45:56.279Z,21.66
2022-08-05T01:46:54.732Z,21.66
2022-08-05T01:47:54.701Z,21.66
2022-08-05T01:48:54.695Z,21.64
2022-08-05T01:50:02.106Z,21.69
2022-08-05T01:50:55.677Z,21.61
2022-08-05T01:51:54.694Z,21.66
2022-08-05T01:52:54.650Z,21.71
2022-08-05T01:53:58.753Z,21.66
2022-08-05T01:54:54.634Z,21.66
2022-08-05T01:55:54.613Z,21.69
2022-08-05T01:58:10.466Z,21.82
2022-08-05T01:58:29.847Z,21.76
2022-08-05T01:58:55.591Z,21.74
2022-08-05T01:59:54.583Z,21.82
2022-08-05T02:00:54.570Z,21.69
2022-08-05T02:01:55.513Z,21.56
2022-08-05T02:02:55.042Z,21.44
2022-08-05T02:03:54.543Z,21.27
2022-08-05T02:04:54.535Z,21.23
2022-08-05T02:05:59.731Z,21.09
2022-08-05T02:06:55.547Z,20.95
2022-08-05T02:08:00.242Z,20.89
2022-08-05T02:08:58.862Z,20.72
2022-08-05T02:09:54.481Z,20.72
2022-08-05T02:10:54.470Z,20.69
2022-08-05T02:11:54.464Z,20.68
2022-08-05T02:12:54.461Z,20.65
2022-08-05T02:13:54.465Z,20.68
2022-08-05T02:14:54.425Z,20.61
2022-08-05T02:15:54.417Z,20.74
2022-08-05T02:16:54.425Z,20.68
2022-08-05T02:18:30.924Z,20.65
2022-08-05T02:18:55.398Z,20.54
2022-08-05T02:19:54.374Z,20.61
2022-08-05T02:20:54.363Z,20.39
2022-08-05T02:21:54.374Z,20.33
2022-08-05T02:22:54.361Z,20.39
2022-08-05T02:23:54.331Z,20.39
2022-08-05T02:24:54.323Z,20.35
2022-08-05T02:25:54.320Z,20.33
2022-08-05T02:26:54.846Z,20.35
2022-08-05T02:27:58.455Z,20.28
2022-08-05T02:28:54.297Z,20.30
2022-08-05T02:29:59.522Z,20.21
2022-08-05T02:30:56.639Z,20.23
2022-08-05T02:31:54.265Z,20.27
2022-08-05T02:32:54.242Z,20.28
2022-08-05T02:33:57.251Z,20.25
2022-08-05T02:34:54.897Z,20.42
2022-08-05T02:35:56.305Z,20.46
2022-08-05T02:36:54.215Z,20.49
2022-08-05T02:37:54.281Z,20.49
2022-08-05T02:38:54.193Z,20.56
2022-08-05T02:39:54.228Z,20.49
2022-08-05T02:40:54.161Z,20.53
2022-08-05T02:42:00.916Z,20.41
2022-08-05T02:42:55.175Z,20.51
2022-08-05T02:44:02.443Z,20.46
2022-08-05T02:44:55.198Z,20.43
2022-08-05T02:45:54.181Z,20.42
2022-08-05T02:46:59.962Z,20.38
2022-08-05T02:48:12.059Z,20.33
2022-08-05T02:48:55.163Z,20.15
2022-08-05T02:49:54.071Z,20.18
2022-08-05T02:50:54.076Z,20.02
2022-08-05T02:52:03.556Z,20.02
2022-08-05T02:52:55.064Z,19.94
2022-08-05T02:53:54.861Z,19.98
2022-08-05T02:54:54.023Z,19.95
2022-08-05T02:55:59.973Z,19.91
2022-08-05T02:56:54.021Z,19.86
2022-08-05T02:58:10.788Z,19.91
2022-08-05T02:58:54.975Z,19.93
2022-08-05T02:59:53.981Z,19.90
2022-08-05T03:00:53.989Z,19.94
2022-08-05T03:01:54.013Z,19.97
2022-08-05T03:02:53.950Z,19.84
2022-08-05T03:04:03.133Z,19.86
2022-08-05T03:04:54.923Z,19.86
2022-08-05T03:06:53.941Z,19.83
2022-08-05T03:06:59.394Z,19.88
2022-08-05T03:08:04.510Z,19.86
2022-08-05T03:08:54.867Z,19.80
2022-08-05T03:09:53.865Z,19.83
2022-08-05T03:11:53.659Z,19.76
2022-08-05T03:11:58.242Z,19.75
2022-08-05T03:12:53.855Z,19.87
2022-08-05T03:14:02.834Z,19.75
2022-08-05T03:14:54.823Z,19.84
2022-08-05T03:15:53.839Z,19.86
2022-08-05T03:16:53.802Z,19.88
2022-08-05T03:17:54.268Z,19.86
2022-08-05T03:18:53.790Z,19.76
2022-08-05T03:19:53.772Z,19.88
2022-08-05T03:20:53.764Z,19.87
2022-08-05T03:21:53.757Z,19.79
2022-08-05T03:22:55.276Z,19.80
2022-08-05T03:23:53.730Z,19.78
2022-08-05T03:24:53.720Z,19.80
2022-08-05T03:26:03.833Z,19.84
2022-08-05T03:26:54.699Z,19.84
2022-08-05T03:27:59.370Z,19.84
2022-08-05T03:28:54.679Z,19.86
2022-08-05T03:30:08.083Z,19.95
2022-08-05T03:30:54.653Z,19.98
2022-08-05T03:31:57.087Z,19.80
2022-08-05T03:32:54.670Z,19.88
2022-08-05T03:33:53.623Z,19.86
2022-08-05T03:34:53.657Z,19.79
2022-08-05T03:35:53.610Z,19.84
2022-08-05T03:36:53.588Z,19.79
2022-08-05T03:37:53.617Z,19.78
2022-08-05T03:38:53.578Z,19.70
2022-08-05T03:39:59.258Z,19.73
2022-08-05T03:40:55.642Z,19.68
2022-08-05T03:41:53.543Z,19.68
2022-08-05T03:42:53.558Z,19.51
2022-08-05T03:44:08.167Z,19.66
2022-08-05T03:44:54.519Z,19.65
2022-08-05T03:45:58.264Z,19.65
2022-08-05T03:46:54.498Z,19.68
2022-08-05T03:47:57.175Z,19.63
2022-08-05T03:48:53.482Z,19.69
2022-08-05T03:49:53.469Z,19.65
2022-08-05T03:50:53.456Z,19.63
2022-08-05T03:52:50.386Z,19.66
2022-08-05T03:55:00.516Z,19.65
2022-08-05T03:55:34.663Z,19.66
2022-08-05T03:55:52.078Z,19.58
2022-08-05T03:56:11.574Z,19.65
2022-08-05T03:56:55.390Z,19.58
2022-08-05T03:57:53.479Z,19.63
2022-08-05T03:58:53.362Z,19.69
2022-08-05T03:59:54.691Z,19.66
2022-08-05T04:00:53.352Z,19.60
2022-08-05T04:01:53.437Z,19.63
2022-08-05T04:02:59.022Z,19.70
2022-08-05T04:04:05.382Z,19.68
2022-08-05T04:04:54.315Z,19.58
2022-08-05T04:05:53.300Z,19.68
2022-08-05T04:06:53.281Z,19.60
2022-08-05T04:07:58.483Z,19.60
2022-08-05T04:08:54.282Z,19.70
2022-08-05T04:09:53.970Z,19.69
2022-08-05T04:10:53.249Z,19.69
2022-08-05T04:11:53.246Z,19.70
2022-08-05T04:12:53.260Z,19.69
2022-08-05T04:13:53.590Z,19.66
2022-08-05T04:14:53.203Z,19.65
2022-08-05T04:16:04.570Z,19.70
2022-08-05T04:16:54.219Z,19.70
2022-08-05T04:17:56.266Z,19.73
2022-08-05T04:18:54.124Z,19.65
2022-08-05T04:19:54.461Z,19.76
2022-08-05T04:20:54.152Z,19.70
2022-08-05T04:22:08.319Z,19.75
2022-08-05T04:22:54.123Z,19.76
2022-08-05T04:24:04.738Z,19.83
2022-08-05T04:24:54.106Z,19.87
2022-08-05T04:26:00.686Z,19.78
2022-08-05T04:26:53.082Z,19.80
2022-08-05T04:27:58.167Z,19.83
2022-08-05T04:28:54.068Z,19.84
2022-08-05T04:29:53.068Z,19.73
2022-08-05T04:30:53.049Z,19.80
2022-08-05T04:31:53.043Z,19.84
2022-08-05T04:32:53.068Z,19.95
2022-08-05T04:34:19.158Z,19.88
2022-08-05T04:34:57.634Z,20.00
2022-08-05T04:36:11.237Z,19.93
2022-08-05T04:36:54.003Z,19.97
2022-08-05T04:38:02.679Z,20.05
2022-08-05T04:38:54.010Z,20.08
2022-08-05T04:39:53.100Z,20.15
2022-08-05T04:40:52.941Z,19.97
2022-08-05T04:41:52.942Z,20.03
2022-08-05T04:42:52.938Z,20.00
2022-08-05T04:43:53.037Z,20.15
2022-08-05T04:44:52.918Z,20.09
2022-08-05T04:45:54.960Z,20.18
2022-08-05T04:46:52.882Z,20.13
2022-08-05T04:47:52.912Z,20.02
2022-08-05T04:48:52.871Z,20.10
2022-08-05T04:50:01.879Z,20.06
2022-08-05T04:51:02.537Z,20.06
2022-08-05T04:52:00.419Z,20.06
2022-08-05T04:52:53.851Z,20.21
2022-08-05T04:53:52.846Z,20.10
2022-08-05T04:54:52.803Z,20.24
2022-08-05T04:56:15.455Z,20.23
2022-08-05T04:56:58.735Z,20.24
2022-08-05T04:57:54.234Z,20.20
2022-08-05T04:58:52.762Z,20.34
2022-08-05T04:59:53.778Z,20.38
2022-08-05T05:00:52.793Z,20.46
2022-08-05T05:02:07.208Z,20.43
2022-08-05T05:02:53.799Z,20.49
2022-08-05T05:03:52.748Z,20.49
2022-08-05T05:04:52.715Z,20.56
2022-08-05T05:06:39.995Z,20.61
2022-08-05T05:06:57.755Z,20.62
2022-08-05T05:07:52.829Z,20.61
2022-08-05T05:08:52.670Z,20.61
2022-08-05T05:09:52.661Z,20.58
2022-08-05T05:10:52.644Z,20.62
2022-08-05T05:11:54.432Z,20.65
2022-08-05T05:12:52.645Z,20.62
2022-08-05T05:13:52.636Z,20.62
2022-08-05T05:14:52.606Z,20.66
2022-08-05T05:15:57.031Z,20.69
2022-08-05T05:16:53.597Z,20.66
2022-08-05T05:17:56.263Z,20.69
2022-08-05T05:19:17.823Z,20.76
2022-08-05T05:19:54.564Z,20.68
2022-08-05T05:20:52.548Z,20.89
2022-08-05T05:21:55.582Z,20.79
2022-08-05T05:22:52.540Z,20.77
2022-08-05T05:24:02.755Z,20.91
2022-08-05T05:24:57.429Z,20.93
2022-08-05T05:25:53.504Z,20.95
2022-08-05T05:26:52.511Z,20.91
2022-08-05T05:27:53.920Z,21.04
2022-08-05T05:28:52.472Z,21.02
2022-08-05T05:30:04.453Z,21.02
2022-08-05T05:30:53.449Z,21.04
2022-08-05T05:31:52.443Z,20.93
2022-08-05T05:32:52.441Z,20.95
2022-08-05T05:33:59.385Z,20.87
2022-08-05T05:34:52.596Z,20.98
2022-08-05T05:35:52.401Z,20.96
2022-08-05T05:36:52.428Z,21.08
2022-08-05T05:38:00.122Z,21.11
2022-08-05T05:38:52.367Z,21.13
2022-08-05T05:39:52.447Z,21.09
2022-08-05T05:40:52.356Z,21.13
2022-08-05T05:41:54.539Z,21.17
2022-08-05T05:42:52.363Z,21.13
2022-08-05T05:43:58.635Z,21.14
2022-08-05T05:44:53.308Z,21.05
2022-08-05T05:45:53.309Z,21.04
2022-08-05T05:46:52.306Z,21.11
2022-08-05T05:48:06.968Z,21.11
2022-08-05T05:48:53.274Z,21.23
2022-08-05T05:49:56.615Z,21.29
2022-08-05T05:50:52.251Z,21.36
2022-08-05T05:51:52.233Z,21.34
2022-08-05T05:52:52.247Z,21.42
2022-08-05T05:53:58.058Z,21.39
2022-08-05T05:54:53.213Z,21.30
2022-08-05T05:56:00.980Z,21.48
2022-08-05T05:56:53.200Z,21.39
2022-08-05T05:57:53.178Z,21.39
2022-08-05T05:58:52.171Z,21.36
2022-08-05T05:59:52.459Z,21.35
2022-08-05T06:00:52.160Z,21.32
2022-08-05T06:01:57.339Z,21.42
2022-08-05T06:02:52.162Z,21.48
2022-08-05T06:04:01.366Z,21.45
2022-08-05T06:04:53.169Z,21.38
2022-08-05T06:05:54.237Z,21.48
2022-08-05T06:06:52.105Z,21.50
2022-08-05T06:08:01.193Z,21.36
2022-08-05T06:08:53.081Z,21.29
2022-08-05T06:10:01.368Z,21.08
2022-08-05T06:10:54.055Z,21.19
2022-08-05T06:11:59.390Z,21.05
2022-08-05T06:12:53.043Z,20.96
2022-08-05T06:13:54.132Z,20.93
2022-08-05T06:14:52.020Z,20.84
2022-08-05T06:16:30.596Z,20.96
2022-08-05T06:16:52.991Z,20.93
2022-08-05T06:17:52.707Z,20.95
2022-08-05T06:18:53.549Z,20.96
2022-08-05T06:19:57.231Z,21.04
2022-08-05T06:20:54.167Z,21.04
2022-08-05T06:21:51.939Z,21.02
2022-08-05T06:22:51.948Z,21.09
2022-08-05T06:23:51.924Z,21.06
2022-08-05T06:24:51.913Z,21.04
2022-08-05T06:26:12.813Z,21.14
2022-08-05T06:26:53.243Z,21.17
2022-08-05T06:28:09.116Z,21.13
2022-08-05T06:28:52.877Z,21.26
2022-08-05T06:30:05.896Z,21.27
2022-08-05T06:30:53.843Z,21.24
2022-08-05T06:31:51.871Z,21.21
2022-08-05T06:32:51.846Z,21.17
2022-08-05T06:34:07.194Z,21.14
2022-08-05T06:34:53.424Z,21.29
2022-08-05T06:36:07.802Z,21.38
2022-08-05T06:36:57.414Z,21.41
2022-08-05T06:37:57.728Z,21.48
2022-08-05T06:38:51.782Z,21.50
2022-08-05T06:39:51.771Z,21.61
2022-08-05T06:40:51.759Z,21.61
2022-08-05T06:41:51.752Z,21.69
2022-08-05T06:42:52.779Z,21.69
2022-08-05T06:44:00.176Z,21.69
2022-08-05T06:44:52.712Z,21.67
2022-08-05T06:46:06.785Z,21.76
2022-08-05T06:46:52.686Z,21.75
2022-08-05T06:48:35.893Z,21.63
2022-08-05T06:48:56.677Z,21.64
2022-08-05T06:50:00.269Z,21.60
2022-08-05T06:50:51.650Z,21.63
2022-08-05T06:51:51.647Z,21.50
2022-08-05T06:53:03.996Z,21.59
2022-08-05T06:53:53.478Z,21.61
2022-08-05T06:54:52.152Z,21.57
2022-08-05T06:55:51.609Z,21.60
2022-08-05T06:56:54.881Z,21.66
2022-08-05T06:57:57.760Z,21.71
2022-08-05T06:58:52.573Z,21.76
2022-08-05T06:59:56.417Z,21.71
2022-08-05T07:00:53.574Z,21.74
2022-08-05T07:01:53.050Z,21.67
2022-08-05T07:02:53.526Z,21.63
2022-08-05T07:03:51.530Z,21.69
2022-08-05T07:04:51.512Z,21.61
2022-08-05T07:05:51.515Z,21.66
2022-08-05T07:06:51.491Z,21.69
2022-08-05T07:07:51.502Z,21.71
2022-08-05T07:08:54.512Z,21.78
2022-08-05T07:09:58.143Z,21.85
2022-08-05T07:10:52.579Z,21.88
2022-08-05T07:11:51.851Z,21.85
2022-08-05T07:12:51.455Z,21.88
2022-08-05T07:13:57.711Z,21.97
2022-08-05T07:14:51.417Z,21.99
2022-08-05T07:16:02.029Z,22.17
2022-08-05T07:17:59.255Z,22.13
2022-08-05T07:18:00.755Z,22.10
2022-08-05T07:18:52.401Z,22.12
2022-08-05T07:20:31.514Z,22.14
2022-08-05T07:20:53.362Z,22.14
2022-08-05T07:22:01.083Z,22.17
2022-08-05T07:22:52.373Z,22.22
2022-08-05T07:23:52.370Z,22.12
2022-08-05T07:24:52.640Z,22.17
2022-08-05T07:25:54.655Z,22.19
2022-08-05T07:26:51.304Z,22.12
2022-08-05T07:27:57.566Z,22.12
2022-08-05T07:28:52.273Z,21.99
2022-08-05T07:30:28.171Z,21.98
2022-08-05T07:30:54.008Z,21.99
2022-08-05T07:31:55.113Z,21.98
2022-08-05T07:32:53.521Z,22.06
2022-08-05T07:33:51.225Z,22.12
2022-08-05T07:34:51.204Z,22.09
2022-08-05T07:36:02.309Z,22.13
2022-08-05T07:36:52.192Z,22.09
2022-08-05T07:37:51.205Z,22.20
2022-08-05T07:38:54.872Z,22.31
2022-08-05T07:40:04.529Z,22.22
2022-08-05T07:40:55.681Z,22.27
2022-08-05T07:42:12.893Z,22.41
2022-08-05T07:42:52.155Z,22.37
2022-08-05T07:43:51.122Z,22.50
2022-08-05T07:44:51.111Z,22.54
2022-08-05T07:45:57.163Z,22.62
2022-08-05T07:46:51.080Z,22.69
2022-08-05T07:47:51.100Z,22.72
2022-08-05T07:49:04.410Z,22.57
2022-08-05T07:49:54.342Z,22.39
2022-08-05T07:50:51.046Z,22.28
2022-08-05T07:52:23.842Z,22.28
2022-08-05T07:52:51.049Z,22.44
2022-08-05T07:53:51.637Z,22.65
2022-08-05T07:54:51.011Z,22.71
2022-08-05T07:56:06.445Z,22.67
2022-08-05T07:57:13.712Z,22.54
2022-08-05T07:57:58.712Z,22.62
2022-08-05T07:58:58.616Z,22.65
2022-08-05T07:59:51.959Z,22.71
2022-08-05T08:00:50.981Z,22.97
2022-08-05T08:01:52.095Z,23.17
2022-08-05T08:03:14.984Z,23.24
2022-08-05T08:03:51.923Z,23.43
2022-08-05T08:04:50.908Z,23.53
2022-08-05T08:05:50.890Z,23.61
2022-08-05T08:06:51.303Z,23.60
2022-08-05T08:08:00.038Z,23.58
2022-08-05T08:08:51.866Z,23.57
2022-08-05T08:09:52.286Z,23.31
2022-08-05T08:10:50.845Z,23.15
2022-08-05T08:11:54.273Z,22.94
2022-08-05T08:12:51.841Z,22.78
2022-08-05T08:14:00.856Z,22.83
2022-08-05T08:14:51.815Z,22.72
2022-08-05T08:16:49.794Z,22.80
2022-08-05T08:16:53.521Z,22.69
2022-08-05T08:17:53.141Z,22.69
2022-08-05T08:18:50.761Z,22.69
2022-08-05T08:20:22.026Z,22.60
2022-08-05T08:21:02.694Z,22.46
2022-08-05T08:21:51.730Z,22.22
2022-08-05T08:22:50.735Z,22.23
2022-08-05T08:24:01.043Z,22.19
2022-08-05T08:24:52.156Z,22.06
2022-08-05T08:26:00.740Z,21.92
2022-08-05T08:26:52.425Z,21.72
2022-08-05T08:27:51.187Z,21.81
2022-08-05T08:28:59.563Z,21.74
2022-08-05T08:30:05.450Z,21.71
2022-08-05T08:30:51.636Z,21.79
2022-08-05T08:31:50.633Z,21.81
2022-08-05T08:32:50.624Z,21.99
2022-08-05T08:33:51.666Z,21.97
2022-08-05T08:34:50.598Z,22.12
2022-08-05T08:35:52.691Z,22.14
2022-08-05T08:36:55.712Z,22.23
2022-08-05T08:37:51.827Z,22.43
2022-08-05T08:38:53.438Z,22.60
2022-08-05T08:39:50.636Z,22.67
2022-08-05T08:40:51.787Z,22.62
2022-08-05T08:42:00.160Z,22.52
2022-08-05T08:42:52.733Z,22.47
2022-08-05T08:45:18.465Z,22.57
2022-08-05T08:45:19.857Z,22.52
2022-08-05T08:45:51.502Z,22.67
2022-08-05T08:46:50.483Z,22.74
2022-08-05T08:48:07.319Z,22.65
2022-08-05T08:49:07.692Z,22.90
2022-08-05T08:50:05.720Z,23.04
2022-08-05T08:51:04.161Z,23.31
2022-08-05T08:52:03.798Z,23.68
2022-08-05T08:52:53.021Z,23.72
2022-08-05T08:53:50.411Z,23.97
2022-08-05T08:54:50.404Z,23.92
2022-08-05T08:56:03.383Z,23.79
2022-08-05T08:56:51.382Z,23.94
2022-08-05T08:57:58.237Z,24.08
2022-08-05T08:58:50.486Z,24.20
2022-08-05T08:59:50.355Z,24.50
2022-08-05T09:00:50.379Z,24.57
2022-08-05T09:01:57.115Z,24.61
2022-08-05T09:02:50.324Z,24.75
2022-08-05T09:03:54.485Z,24.73
2022-08-05T09:05:16.786Z,24.63
2022-08-05T09:06:08.809Z,24.83
2022-08-05T09:06:51.278Z,24.95
2022-08-05T09:07:57.118Z,25.12
2022-08-05T09:08:51.293Z,25.10
2022-08-05T09:09:50.265Z,25.06
2022-08-05T09:10:50.242Z,25.13
2022-08-05T09:11:53.819Z,25.02
2022-08-05T09:12:51.019Z,25.24
2022-08-05T09:14:09.702Z,25.28
2022-08-05T09:14:57.859Z,25.10
2022-08-05T09:15:51.200Z,25.02
2022-08-05T09:16:50.192Z,25.07
2022-08-05T09:17:50.169Z,25.19
2022-08-05T09:18:50.181Z,25.24
2022-08-05T09:19:55.023Z,25.13
2022-08-05T09:20:51.189Z,25.19
2022-08-05T09:22:30.915Z,25.20
2022-08-05T09:22:51.982Z,25.24
2022-08-05T09:23:50.131Z,25.01
2022-08-05T09:24:50.114Z,25.00
2022-08-05T09:26:01.558Z,24.94
2022-08-05T09:26:51.766Z,24.80
2022-08-05T09:28:04.307Z,24.59
2022-08-05T09:28:51.065Z,24.37
2022-08-05T09:29:51.061Z,24.24
2022-08-05T09:30:50.061Z,23.92
2022-08-05T09:32:40.886Z,23.75
2022-08-05T09:32:52.798Z,23.92
2022-08-05T09:33:50.797Z,24.02
2022-08-05T09:34:50.009Z,24.07
2022-08-05T09:35:50.002Z,24.16
2022-08-05T09:36:55.945Z,24.26
2022-08-05T09:38:16.341Z,24.42
2022-08-05T09:38:50.989Z,24.60
2022-08-05T09:39:52.386Z,24.77
2022-08-05T09:40:52.278Z,24.92
2022-08-05T09:41:55.455Z,24.94
2022-08-05T09:42:50.936Z,25.22
2022-08-05T09:43:49.937Z,25.32
2022-08-05T09:44:50.519Z,25.30
2022-08-05T09:46:07.397Z,25.49
2022-08-05T09:46:53.490Z,25.52
2022-08-05T09:47:56.072Z,25.61
2022-08-05T09:48:50.898Z,25.53
2022-08-05T09:50:00.656Z,25.46
2022-08-05T09:50:50.854Z,25.49
2022-08-05T09:51:50.403Z,25.53
2022-08-05T09:52:52.996Z,25.56
2022-08-05T09:53:54.086Z,25.59
2022-08-05T09:54:49.820Z,25.65
2022-08-05T09:55:58.137Z,25.82
2022-08-05T09:56:52.315Z,25.82
2022-08-05T09:57:49.791Z,25.62
2022-08-05T09:58:50.800Z,25.47
2022-08-05T09:59:49.771Z,25.49
2022-08-05T10:00:49.759Z,25.64
2022-08-05T10:01:57.905Z,25.80
2022-08-05T10:02:50.767Z,25.89
2022-08-05T10:03:59.124Z,26.04
2022-08-05T10:04:50.717Z,26.05
2022-08-05T10:05:49.716Z,26.11
2022-08-05T10:06:54.837Z,26.20
2022-08-05T10:08:10.975Z,26.21
2022-08-05T10:08:55.358Z,26.36
2022-08-05T10:09:50.671Z,26.57
2022-08-05T10:10:54.296Z,26.47
2022-08-05T10:11:49.658Z,26.46
2022-08-05T10:12:50.457Z,26.61
2022-08-05T10:13:49.675Z,26.67
2022-08-05T10:14:50.627Z,26.79
2022-08-05T10:15:49.620Z,27.06
2022-08-05T10:16:53.089Z,27.09
2022-08-05T10:17:56.846Z,27.14
2022-08-05T10:18:50.607Z,27.10
2022-08-05T10:20:04.181Z,26.84
2022-08-05T10:20:50.581Z,26.74
2022-08-05T10:21:49.571Z,26.74
2022-08-05T10:22:51.088Z,26.87
2022-08-05T10:23:59.645Z,26.98
2022-08-05T10:24:50.650Z,26.84
2022-08-05T10:25:49.532Z,26.81
2022-08-05T10:26:51.429Z,26.58
2022-08-05T10:28:12.750Z,26.50
2022-08-05T10:28:50.632Z,26.54
2022-08-05T10:30:06.967Z,26.67
2022-08-05T10:32:49.411Z,26.73
2022-08-05T10:32:52.807Z,26.69
2022-08-05T10:33:00.076Z,26.72
2022-08-05T10:33:52.272Z,26.76
2022-08-05T10:34:49.439Z,26.58
2022-08-05T10:35:59.023Z,26.50
2022-08-05T10:36:51.418Z,26.43
2022-08-05T10:37:49.413Z,26.55
2022-08-05T10:38:49.427Z,26.55
2022-08-05T10:40:03.254Z,26.65
2022-08-05T10:40:50.774Z,26.77
2022-08-05T10:41:49.379Z,27.02
2022-08-05T10:42:49.359Z,26.84
2022-08-05T10:43:49.365Z,26.83
2022-08-05T10:44:49.348Z,26.65
2022-08-05T10:45:49.339Z,26.02
2022-08-05T10:46:50.554Z,26.17
2022-08-05T10:47:56.193Z,26.42
2022-08-05T10:48:57.356Z,26.55
2022-08-05T10:50:36.325Z,26.76
2022-08-05T10:50:50.293Z,26.79
2022-08-05T10:51:59.709Z,26.77
2022-08-05T10:52:50.268Z,26.79
2022-08-05T10:53:49.268Z,26.94
2022-08-05T10:54:56.456Z,27.01
2022-08-05T10:56:03.833Z,26.86
2022-08-05T10:56:52.780Z,26.80
2022-08-05T10:57:51.393Z,26.94
2022-08-05T10:58:50.542Z,26.99
2022-08-05T11:00:02.640Z,26.92
2022-08-05T11:00:54.904Z,27.13
2022-08-05T11:01:54.858Z,27.28
2022-08-05T11:02:50.642Z,26.91
2022-08-05T11:03:49.200Z,26.89
2022-08-05T11:04:49.187Z,26.95
2022-08-05T11:05:49.132Z,26.99
2022-08-05T11:06:49.122Z,27.01
2022-08-05T11:08:03.014Z,27.19
2022-08-05T11:08:50.116Z,27.10
2022-08-05T11:09:49.091Z,27.02
2022-08-05T11:10:50.289Z,27.06
2022-08-05T11:11:53.013Z,26.79
2022-08-05T11:12:54.449Z,26.55
2022-08-05T11:13:54.728Z,26.39
2022-08-05T11:15:01.463Z,26.47
2022-08-05T11:16:00.688Z,26.74
2022-08-05T11:16:57.714Z,26.86
2022-08-05T11:17:57.369Z,26.91
2022-08-05T11:18:51.714Z,26.52
2022-08-05T11:20:10.251Z,26.37
2022-08-05T11:20:49.983Z,26.39
2022-08-05T11:21:49.753Z,26.27
2022-08-05T11:22:50.109Z,25.91
2022-08-05T11:24:04.033Z,25.65
2022-08-05T11:24:50.636Z,25.65
2022-08-05T11:26:04.964Z,25.91
2022-08-05T11:26:49.961Z,26.24
2022-08-05T11:27:51.954Z,26.44
2022-08-05T11:28:49.912Z,26.31
2022-08-05T11:29:48.881Z,25.91
2022-08-05T11:30:48.877Z,25.72
2022-08-05T11:31:57.453Z,25.83
2022-08-05T11:32:50.861Z,25.74
2022-08-05T11:33:48.858Z,25.15
2022-08-05T11:34:54.050Z,24.38
2022-08-05T11:36:08.341Z,23.43
2022-08-05T11:36:52.835Z,23.04
2022-08-05T11:38:29.411Z,22.78
2022-08-05T11:38:51.263Z,22.74
2022-08-05T11:39:48.855Z,22.62
2022-08-05T11:40:48.779Z,22.53
2022-08-05T11:42:02.030Z,22.38
2022-08-05T11:42:49.765Z,22.32
2022-08-05T11:44:06.417Z,21.94
2022-08-05T11:44:53.839Z,21.75
2022-08-05T11:46:27.501Z,21.75
2022-08-05T11:47:09.996Z,21.90
2022-08-05T11:47:50.533Z,21.83
2022-08-05T11:48:49.714Z,21.61
2022-08-05T11:49:51.189Z,21.71
2022-08-05T11:50:48.677Z,21.71
2022-08-05T11:51:49.432Z,21.64
2022-08-05T11:52:51.093Z,21.61
2022-08-05T11:53:48.658Z,21.64
2022-08-05T11:54:54.759Z,21.69
2022-08-05T11:55:49.635Z,21.75
2022-08-05T11:56:50.067Z,21.72
2022-08-05T11:58:09.710Z,21.78
2022-08-05T11:58:53.042Z,21.88
2022-08-05T11:59:50.672Z,21.94
2022-08-05T12:00:52.829Z,21.79
2022-08-05T12:01:49.562Z,21.74
2022-08-05T12:02:48.575Z,21.75
2022-08-05T12:03:55.777Z,21.90
2022-08-05T12:04:59.016Z,21.79
2022-08-05T12:05:49.530Z,21.76
2022-08-05T12:06:48.983Z,21.83
2022-08-05T12:08:07.233Z,21.82
2022-08-05T12:08:51.093Z,21.82
2022-08-05T12:09:53.358Z,21.81
2022-08-05T12:10:48.705Z,21.74
2022-08-05T12:11:48.463Z,21.67
2022-08-05T12:12:59.261Z,21.69
2022-08-05T12:13:50.110Z,21.69
2022-08-05T12:14:49.441Z,21.63
2022-08-05T12:15:50.278Z,21.60
2022-08-05T12:16:49.411Z,21.60
2022-08-05T12:18:03.651Z,21.63
2022-08-05T12:18:53.094Z,21.74
2022-08-05T12:20:25.444Z,21.76
2022-08-05T12:20:49.429Z,21.60
2022-08-05T12:21:48.365Z,21.48
2022-08-05T12:22:48.348Z,21.41
2022-08-05T12:23:48.367Z,21.20
2022-08-05T12:24:49.391Z,21.38
2022-08-05T12:25:48.326Z,21.36
2022-08-05T12:26:48.313Z,21.51
2022-08-05T12:27:53.314Z,21.35
2022-08-05T12:28:49.311Z,21.45
2022-08-05T12:29:56.862Z,21.39
2022-08-05T12:30:48.274Z,21.09
2022-08-05T12:31:53.204Z,21.08
2022-08-05T12:32:50.325Z,20.81
2022-08-05T12:33:48.228Z,20.76
2022-08-05T12:34:48.248Z,20.41
2022-08-05T12:35:48.273Z,20.28
2022-08-05T12:36:48.209Z,20.05
2022-08-05T12:37:48.303Z,20.03
2022-08-05T12:38:48.190Z,20.15
2022-08-05T12:39:48.614Z,20.20
2022-08-05T12:40:48.169Z,20.27
2022-08-05T12:41:48.624Z,20.09
2022-08-05T12:42:48.832Z,20.03
2022-08-05T12:43:48.137Z,20.15
2022-08-05T12:44:48.137Z,19.94
2022-08-05T12:45:48.215Z,19.87
2022-08-05T12:46:48.125Z,19.93
2022-08-05T12:48:17.240Z,20.03
2022-08-05T12:48:49.112Z,19.95
2022-08-05T12:50:03.629Z,19.90
2022-08-05T12:50:49.087Z,19.73
2022-08-05T12:52:13.901Z,19.69
2022-08-05T12:52:49.066Z,19.57